createdAt,value
2018-03-26T00:00:17.832Z,99648.03
2018-03-26T00:01:23.640Z,99645.98
2018-03-26T00:02:29.607Z,99644.95
2018-03-26T00:03:35.332Z,99650.19
2018-03-26T00:04:41.882Z,99654.41
2018-03-26T00:05:47.664Z,99654.77
2018-03-26T00:06:53.445Z,99649.91
2018-03-26T00:07:59.221Z,99649.72
2018-03-26T00:09:04.836Z,99653.19
2018-03-26T00:10:11.378Z,99655.00
2018-03-26T00:11:17.189Z,99652.00
2018-03-26T00:12:23.025Z,99651.22
2018-03-26T00:13:28.865Z,99651.22
2018-03-26T00:14:34.723Z,99647.25
2018-03-26T00:15:40.487Z,99654.77
2018-03-26T00:16:46.243Z,99647.84
2018-03-26T00:17:52.002Z,99649.76
2018-03-26T00:18:58.553Z,99652.65
2018-03-26T00:20:04.263Z,99648.41
2018-03-26T00:21:10.014Z,99645.88
2018-03-26T00:22:15.820Z,99650.91
2018-03-26T00:23:21.560Z,99647.11
2018-03-26T00:24:27.314Z,99650.80
2018-03-26T00:25:33.080Z,99648.72
2018-03-26T00:26:38.797Z,99645.64
2018-03-26T00:27:44.548Z,99648.49
2018-03-26T00:28:50.370Z,99646.06
2018-03-26T00:29:56.281Z,99651.84
2018-03-26T00:31:02.788Z,99648.76
2018-03-26T00:32:08.577Z,99649.29
2018-03-26T00:33:15.068Z,99650.60
2018-03-26T00:34:20.786Z,99650.48
2018-03-26T00:35:26.589Z,99653.94
2018-03-26T00:36:32.313Z,99653.83
2018-03-26T00:37:38.029Z,99649.90
2018-03-26T00:38:43.743Z,99651.70
2018-03-26T00:39:50.229Z,99653.78
2018-03-26T00:40:55.956Z,99651.91
2018-03-26T00:42:02.449Z,99653.64
2018-03-26T00:43:08.178Z,99655.80
2018-03-26T00:44:13.901Z,99650.59
2018-03-26T00:45:19.627Z,99650.67
2018-03-26T00:46:26.121Z,99652.17
2018-03-26T00:47:31.833Z,99653.71
2018-03-26T00:48:38.313Z,99647.63
2018-03-26T00:49:44.021Z,99655.59
2018-03-26T00:50:50.501Z,99652.55
2018-03-26T00:51:57.017Z,99647.70
2018-03-26T00:53:02.720Z,99647.55
2018-03-26T00:54:08.492Z,99652.05
2018-03-26T00:55:14.209Z,99648.55
2018-03-26T00:56:19.935Z,99651.28
2018-03-26T00:57:25.681Z,99650.09
2018-03-26T00:58:31.400Z,99651.94
2018-03-26T00:59:37.869Z,99655.02
2018-03-26T01:00:43.580Z,99650.59
2018-03-26T01:01:50.127Z,99654.09
2018-03-26T01:02:56.452Z,99656.44
2018-03-26T01:04:02.178Z,99656.02
2018-03-26T01:05:07.908Z,99653.16
2018-03-26T01:06:13.638Z,99652.55
2018-03-26T01:07:20.115Z,99656.02
2018-03-26T01:08:25.623Z,99652.13
2018-03-26T01:09:32.207Z,99654.12
2018-03-26T01:10:37.914Z,99655.86
2018-03-26T01:11:43.627Z,99659.52
2018-03-26T01:12:49.343Z,99654.20
2018-03-26T01:13:55.087Z,99661.12
2018-03-26T01:15:00.851Z,99660.24
2018-03-26T01:16:06.570Z,99656.81
2018-03-26T01:17:12.303Z,99657.42
2018-03-26T01:18:18.090Z,99662.70
2018-03-26T01:19:23.819Z,99661.43
2018-03-26T01:20:29.521Z,99656.58
2018-03-26T01:21:35.233Z,99662.84
2018-03-26T01:22:41.713Z,99663.80
2018-03-26T01:23:47.420Z,99666.73
2018-03-26T01:24:53.934Z,99663.31
2018-03-26T01:25:59.681Z,99668.73
2018-03-26T01:27:05.061Z,99668.45
2018-03-26T01:28:11.533Z,99665.06
2018-03-26T01:29:17.237Z,99669.41
2018-03-26T01:30:22.993Z,99671.10
2018-03-26T01:31:29.477Z,99671.64
2018-03-26T01:32:35.985Z,99666.68
2018-03-26T01:33:41.693Z,99666.30
2018-03-26T01:34:47.406Z,99666.72
2018-03-26T01:35:53.908Z,99665.87
2018-03-26T01:36:59.726Z,99669.76
2018-03-26T01:38:05.097Z,99674.80
2018-03-26T01:39:10.813Z,99671.73
2018-03-26T01:40:16.521Z,99671.27
2018-03-26T01:41:23.020Z,99677.42
2018-03-26T01:42:28.744Z,99677.30
2018-03-26T01:43:34.461Z,99679.81
2018-03-26T01:44:40.938Z,99674.16
2018-03-26T01:45:46.652Z,99679.35
2018-03-26T01:46:53.186Z,99676.95
2018-03-26T01:47:58.906Z,99676.57
2018-03-26T01:49:04.630Z,99677.25
2018-03-26T01:50:10.150Z,99680.64
2018-03-26T01:51:15.860Z,99680.57
2018-03-26T01:52:21.595Z,99675.23
2018-03-26T01:53:27.383Z,99679.43
2018-03-26T01:54:33.080Z,99678.97
2018-03-26T01:55:38.793Z,99677.58
2018-03-26T01:56:44.515Z,99681.89
2018-03-26T01:57:50.269Z,99682.54
2018-03-26T01:58:56.046Z,99674.77
2018-03-26T02:00:01.759Z,99678.51
2018-03-26T02:01:07.475Z,99680.28
2018-03-26T02:02:13.189Z,99678.51
2018-03-26T02:03:19.708Z,99678.08
2018-03-26T02:04:25.403Z,99679.85
2018-03-26T02:05:30.927Z,99679.11
2018-03-26T02:06:37.409Z,99677.80
2018-03-26T02:07:43.113Z,99673.42
2018-03-26T02:08:49.607Z,99672.89
2018-03-26T02:09:55.314Z,99675.47
2018-03-26T02:11:01.809Z,99675.92
2018-03-26T02:12:07.639Z,99672.81
2018-03-26T02:13:13.340Z,99677.12
2018-03-26T02:14:19.090Z,99675.58
2018-03-26T02:15:24.807Z,99671.69
2018-03-26T02:16:30.516Z,99672.80
2018-03-26T02:17:36.230Z,99675.02
2018-03-26T02:18:42.702Z,99675.60
2018-03-26T02:19:48.453Z,99679.88
2018-03-26T02:20:54.182Z,99672.48
2018-03-26T02:21:59.916Z,99669.52
2018-03-26T02:23:06.405Z,99677.94
2018-03-26T02:24:12.118Z,99673.52
2018-03-26T02:25:18.606Z,99675.70
2018-03-26T02:26:24.324Z,99677.72
2018-03-26T02:27:30.045Z,99676.95
2018-03-26T02:28:36.539Z,99670.41
2018-03-26T02:29:42.240Z,99672.98
2018-03-26T02:30:48.752Z,99676.62
2018-03-26T02:31:54.464Z,99679.04
2018-03-26T02:33:00.187Z,99680.88
2018-03-26T02:34:06.679Z,99677.45
2018-03-26T02:35:13.160Z,99683.15
2018-03-26T02:36:18.906Z,99686.11
2018-03-26T02:37:24.604Z,99678.88
2018-03-26T02:38:30.313Z,99681.42
2018-03-26T02:39:36.825Z,99684.00
2018-03-26T02:40:42.545Z,99679.83
2018-03-26T02:41:49.093Z,99681.52
2018-03-26T02:42:54.813Z,99678.45
2018-03-26T02:44:00.541Z,99680.60
2018-03-26T02:45:07.531Z,99678.03
2018-03-26T02:46:13.458Z,99682.98
2018-03-26T02:47:19.187Z,99682.06
2018-03-26T02:48:24.902Z,99683.86
2018-03-26T02:49:30.656Z,99680.66
2018-03-26T02:50:36.366Z,99683.84
2018-03-26T02:51:42.086Z,99686.20
2018-03-26T02:52:48.614Z,99682.60
2018-03-26T02:53:54.329Z,99685.30
2018-03-26T02:55:00.050Z,99687.13
2018-03-26T02:56:05.764Z,99679.75
2018-03-26T02:57:12.259Z,99679.39
2018-03-26T02:58:17.993Z,99681.59
2018-03-26T02:59:23.714Z,99681.94
2018-03-26T03:00:30.197Z,99681.44
2018-03-26T03:01:35.702Z,99686.36
2018-03-26T03:02:41.635Z,99682.78
2018-03-26T03:03:48.178Z,99684.26
2018-03-26T03:04:53.897Z,99682.92
2018-03-26T03:05:59.600Z,99684.55
2018-03-26T03:07:05.329Z,99680.66
2018-03-26T03:08:11.810Z,99678.61
2018-03-26T03:09:17.550Z,99678.30
2018-03-26T03:10:23.284Z,99679.07
2018-03-26T03:11:29.018Z,99685.72
2018-03-26T03:12:34.750Z,99678.59
2018-03-26T03:13:41.230Z,99681.30
2018-03-26T03:14:46.952Z,99682.16
2018-03-26T03:15:53.429Z,99687.03
2018-03-26T03:16:59.146Z,99693.53
2018-03-26T03:18:04.897Z,99695.69
2018-03-26T03:19:11.377Z,99694.77
2018-03-26T03:20:17.129Z,99698.97
2018-03-26T03:21:22.828Z,99699.86
2018-03-26T03:22:29.309Z,99699.05
2018-03-26T03:23:35.023Z,99704.55
2018-03-26T03:24:41.516Z,99701.87
2018-03-26T03:25:47.500Z,99704.44
2018-03-26T03:26:53.017Z,99700.20
2018-03-26T03:27:58.732Z,99700.09
2018-03-26T03:29:04.164Z,99702.36
2018-03-26T03:30:09.880Z,99706.21
2018-03-26T03:31:16.389Z,99707.91
2018-03-26T03:32:22.115Z,99703.95
2018-03-26T03:33:27.837Z,99706.21
2018-03-26T03:34:33.556Z,99709.95
2018-03-26T03:35:40.055Z,99707.69
2018-03-26T03:36:45.779Z,99710.38
2018-03-26T03:37:51.484Z,99703.09
2018-03-26T03:38:57.201Z,99714.48
2018-03-26T03:40:02.901Z,99713.84
2018-03-26T03:41:08.629Z,99715.84
2018-03-26T03:42:15.137Z,99722.03
2018-03-26T03:43:20.844Z,99715.03
2018-03-26T03:44:26.544Z,99723.02
2018-03-26T03:45:32.273Z,99723.91
2018-03-26T03:46:37.981Z,99723.91
2018-03-26T03:47:43.730Z,99719.98
2018-03-26T03:48:49.445Z,99729.20
2018-03-26T03:49:55.158Z,99723.55
2018-03-26T03:51:00.865Z,99728.60
2018-03-26T03:52:06.568Z,99719.28
2018-03-26T03:53:12.312Z,99726.23
2018-03-26T03:54:17.876Z,99727.19
2018-03-26T03:55:23.578Z,99721.11
2018-03-26T03:56:30.055Z,99729.73
2018-03-26T03:57:35.769Z,99722.24
2018-03-26T03:58:42.263Z,99728.81
2018-03-26T03:59:47.978Z,99735.77
2018-03-26T04:00:53.693Z,99734.47
2018-03-26T04:01:59.405Z,99728.36
2018-03-26T04:03:04.802Z,99732.28
2018-03-26T04:04:10.545Z,99735.88
2018-03-26T04:05:16.255Z,99740.30
2018-03-26T04:06:22.753Z,99737.54
2018-03-26T04:07:28.466Z,99744.15
2018-03-26T04:08:34.188Z,99739.77
2018-03-26T04:09:39.937Z,99734.75
2018-03-26T04:10:45.676Z,99737.30
2018-03-26T04:11:52.154Z,99740.72
2018-03-26T04:12:57.865Z,99734.33
2018-03-26T04:14:03.576Z,99739.91
2018-03-26T04:15:09.338Z,99736.84
2018-03-26T04:16:15.175Z,99744.25
2018-03-26T04:17:21.078Z,99746.09
2018-03-26T04:18:26.936Z,99736.27
2018-03-26T04:19:32.639Z,99740.13
2018-03-26T04:20:38.815Z,99740.90
2018-03-26T04:21:44.517Z,99742.20
2018-03-26T04:22:51.015Z,99743.52
2018-03-26T04:23:56.729Z,99742.13
2018-03-26T04:25:03.261Z,99742.98
2018-03-26T04:26:08.985Z,99737.33
2018-03-26T04:27:14.727Z,99743.94
2018-03-26T04:28:20.927Z,99740.90
2018-03-26T04:29:27.408Z,99742.31
2018-03-26T04:30:32.772Z,99740.97
2018-03-26T04:31:38.498Z,99743.34
2018-03-26T04:32:44.194Z,99743.41
2018-03-26T04:33:50.680Z,99743.55
2018-03-26T04:34:56.406Z,99747.18
2018-03-26T04:36:02.116Z,99742.55
2018-03-26T04:37:07.879Z,99745.88
2018-03-26T04:38:13.593Z,99747.89
2018-03-26T04:39:19.296Z,99750.39
2018-03-26T04:40:25.000Z,99750.68
2018-03-26T04:41:31.487Z,99749.86
2018-03-26T04:42:37.215Z,99751.06
2018-03-26T04:43:42.940Z,99749.34
2018-03-26T04:44:50.397Z,99753.16
2018-03-26T04:45:56.624Z,99749.59
2018-03-26T04:47:02.347Z,99753.93
2018-03-26T04:48:08.088Z,99749.97
2018-03-26T04:49:13.788Z,99753.93
2018-03-26T04:50:20.307Z,99753.08
2018-03-26T04:51:26.967Z,99754.35
2018-03-26T04:52:32.760Z,99756.51
2018-03-26T04:53:39.276Z,99752.55
2018-03-26T04:54:44.986Z,99752.98
2018-03-26T04:55:50.717Z,99757.71
2018-03-26T04:56:57.420Z,99758.20
2018-03-26T04:58:03.165Z,99760.00
2018-03-26T04:59:09.674Z,99760.50
2018-03-26T05:00:15.401Z,99757.43
2018-03-26T05:01:21.895Z,99764.42
2018-03-26T05:02:27.635Z,99761.00
2018-03-26T05:03:37.346Z,99763.64
2018-03-26T05:04:43.117Z,99764.95
2018-03-26T05:05:49.607Z,99767.24
2018-03-26T05:06:55.329Z,99762.83
2018-03-26T05:08:00.846Z,99763.39
2018-03-26T05:09:05.650Z,99765.97
2018-03-26T05:10:11.388Z,99766.78
2018-03-26T05:11:16.908Z,99761.91
2018-03-26T05:12:23.433Z,99765.91
2018-03-26T05:13:29.147Z,99760.57
2018-03-26T05:14:35.278Z,99759.72
2018-03-26T05:15:41.018Z,99761.03
2018-03-26T05:16:46.716Z,99764.45
2018-03-26T05:17:52.417Z,99765.69
2018-03-26T05:18:58.141Z,99760.43
2018-03-26T05:20:03.834Z,99765.77
2018-03-26T05:21:09.560Z,99763.96
2018-03-26T05:22:15.277Z,99760.61
2018-03-26T05:23:20.774Z,99762.66
2018-03-26T05:24:27.279Z,99763.89
2018-03-26T05:25:32.976Z,99767.25
2018-03-26T05:26:39.512Z,99767.17
2018-03-26T05:27:45.232Z,99757.64
2018-03-26T05:28:50.945Z,99767.64
2018-03-26T05:29:56.673Z,99769.12
2018-03-26T05:31:03.208Z,99765.52
2018-03-26T05:32:09.197Z,99769.30
2018-03-26T05:33:14.950Z,99765.73
2018-03-26T05:34:20.661Z,99774.53
2018-03-26T05:35:26.374Z,99768.62
2018-03-26T05:36:32.916Z,99775.20
2018-03-26T05:37:38.639Z,99773.89
2018-03-26T05:38:44.353Z,99782.20
2018-03-26T05:39:50.065Z,99782.09
2018-03-26T05:40:55.780Z,99781.20
2018-03-26T05:42:01.773Z,99780.57
2018-03-26T05:43:07.829Z,99782.94
2018-03-26T05:44:14.964Z,99785.48
2018-03-26T05:45:20.685Z,99789.97
2018-03-26T05:46:26.476Z,99796.79
2018-03-26T05:47:32.641Z,99799.62
2018-03-26T05:48:38.366Z,99795.77
2018-03-26T05:49:44.116Z,99799.47
2018-03-26T05:50:49.840Z,99802.05
2018-03-26T05:51:56.307Z,99796.30
2018-03-26T05:53:02.031Z,99796.58
2018-03-26T05:54:08.545Z,99792.52
2018-03-26T05:55:14.249Z,99798.14
2018-03-26T05:56:19.952Z,99800.19
2018-03-26T05:57:25.659Z,99799.27
2018-03-26T05:58:31.355Z,99801.95
2018-03-26T05:59:37.828Z,99802.20
2018-03-26T06:00:43.573Z,99801.73
2018-03-26T06:01:49.276Z,99800.43
2018-03-26T06:02:54.788Z,99805.45
2018-03-26T06:04:00.488Z,99801.70
2018-03-26T06:05:06.228Z,99808.13
2018-03-26T06:06:11.621Z,99806.22
2018-03-26T06:07:18.842Z,99806.61
2018-03-26T06:08:24.541Z,99806.53
2018-03-26T06:09:30.241Z,99808.52
2018-03-26T06:10:35.975Z,99815.44
2018-03-26T06:11:41.668Z,99817.49
2018-03-26T06:12:48.171Z,99814.73
2018-03-26T06:13:54.165Z,99809.39
2018-03-26T06:15:00.354Z,99817.66
2018-03-26T06:16:05.788Z,99811.40
2018-03-26T06:17:15.872Z,99818.65
2018-03-26T06:18:21.450Z,99821.72
2018-03-26T06:19:27.766Z,99818.15
2018-03-26T06:20:33.276Z,99823.38
2018-03-26T06:21:38.822Z,99820.45
2018-03-26T06:22:44.339Z,99825.44
2018-03-26T06:23:49.852Z,99822.79
2018-03-26T06:24:56.156Z,99817.09
2018-03-26T06:26:01.900Z,99823.36
2018-03-26T06:27:07.501Z,99822.02
2018-03-26T06:28:13.768Z,99824.38
2018-03-26T06:29:19.390Z,99824.59
2018-03-26T06:30:24.909Z,99823.03
2018-03-26T06:31:31.318Z,99817.27
2018-03-26T06:32:36.921Z,99822.00
2018-03-26T06:33:42.444Z,99820.59
2018-03-26T06:34:48.724Z,99822.28
2018-03-26T06:35:54.118Z,99823.63
2018-03-26T06:38:52.356Z,99828.53
2018-03-26T06:39:58.126Z,99826.27
2018-03-26T06:41:03.692Z,99829.16
2018-03-26T06:42:10.160Z,99828.09
2018-03-26T06:43:15.884Z,99832.27
2018-03-26T06:44:22.375Z,99833.42
2018-03-26T06:45:28.081Z,99832.12
2018-03-26T06:46:34.553Z,99835.16
2018-03-26T06:47:40.252Z,99827.66
2018-03-26T06:48:45.990Z,99831.08
2018-03-26T06:49:51.776Z,99831.16
2018-03-26T06:50:57.689Z,99836.78
2018-03-26T06:52:04.586Z,99836.71
2018-03-26T06:53:10.309Z,99842.33
2018-03-26T06:54:16.785Z,99840.17
2018-03-26T06:55:22.941Z,99838.72
2018-03-26T06:56:28.664Z,99843.80
2018-03-26T06:57:35.141Z,99846.23
2018-03-26T06:58:40.868Z,99844.82
2018-03-26T06:59:46.611Z,99845.81
2018-03-26T07:00:53.104Z,99846.52
2018-03-26T07:01:58.836Z,99842.94
2018-03-26T07:03:04.565Z,99850.61
2018-03-26T07:04:10.277Z,99850.84
2018-03-26T07:05:16.761Z,99845.45
2018-03-26T07:06:22.503Z,99858.91
2018-03-26T07:07:28.204Z,99851.47
2018-03-26T07:08:33.924Z,99852.70
2018-03-26T07:09:39.622Z,99854.82
2018-03-26T07:10:45.328Z,99849.97
2018-03-26T07:11:51.073Z,99857.72
2018-03-26T07:12:57.769Z,99852.41
2018-03-26T07:14:03.488Z,99854.13
2018-03-26T07:15:09.773Z,99855.06
2018-03-26T07:16:15.668Z,99852.02
2018-03-26T07:17:21.400Z,99856.98
2018-03-26T07:18:27.878Z,99858.44
2018-03-26T07:19:33.622Z,99851.36
2018-03-26T07:20:39.333Z,99857.72
2018-03-26T07:21:45.049Z,99856.41
2018-03-26T07:22:50.773Z,99852.78
2018-03-26T07:23:56.492Z,99859.80
2018-03-26T07:25:02.215Z,99858.91
2018-03-26T07:26:08.760Z,99859.30
2018-03-26T07:27:14.529Z,99860.80
2018-03-26T07:28:21.115Z,99859.58
2018-03-26T07:29:26.832Z,99863.24
2018-03-26T07:30:33.318Z,99862.74
2018-03-26T07:31:39.035Z,99867.28
2018-03-26T07:32:45.535Z,99868.79
2018-03-26T07:33:51.296Z,99869.45
2018-03-26T07:34:57.059Z,99866.13
2018-03-26T07:36:02.780Z,99870.26
2018-03-26T07:37:08.508Z,99871.30
2018-03-26T07:38:14.220Z,99871.15
2018-03-26T07:39:20.934Z,99870.41
2018-03-26T07:40:26.658Z,99870.26
2018-03-26T07:41:32.388Z,99873.69
2018-03-26T07:42:38.208Z,99874.27
2018-03-26T07:43:43.969Z,99875.82
2018-03-26T07:44:49.709Z,99877.09
2018-03-26T07:45:55.431Z,99879.02
2018-03-26T07:47:01.171Z,99878.02
2018-03-26T07:48:06.896Z,99879.06
2018-03-26T07:49:14.110Z,99883.22
2018-03-26T07:50:19.865Z,99886.72
2018-03-26T07:51:25.574Z,99889.39
2018-03-26T07:52:31.298Z,99891.20
2018-03-26T07:53:37.850Z,99882.02
2018-03-26T07:54:43.733Z,99882.45
2018-03-26T07:55:49.461Z,99892.00
2018-03-26T07:56:55.177Z,99887.27
2018-03-26T07:58:01.667Z,99885.06
2018-03-26T07:59:07.378Z,99894.20
2018-03-26T08:00:13.662Z,99891.30
2018-03-26T08:01:19.397Z,99893.43
2018-03-26T08:02:25.104Z,99895.73
2018-03-26T08:03:30.859Z,99890.57
2018-03-26T08:04:37.324Z,99889.91
2018-03-26T08:05:43.072Z,99893.23
2018-03-26T08:06:48.472Z,99896.66
2018-03-26T08:07:54.191Z,99893.97
2018-03-26T08:08:59.884Z,99901.78
2018-03-26T08:10:06.021Z,99900.29
2018-03-26T08:11:12.305Z,99900.10
2018-03-26T08:12:18.134Z,99895.20
2018-03-26T08:13:23.501Z,99900.73
2018-03-26T08:14:29.219Z,99898.60
2018-03-26T08:15:34.932Z,99903.27
2018-03-26T08:16:41.407Z,99906.08
2018-03-26T08:17:47.121Z,99904.61
2018-03-26T08:18:53.601Z,99904.56
2018-03-26T08:19:59.320Z,99909.44
2018-03-26T08:21:05.789Z,99909.44
2018-03-26T08:22:12.313Z,99912.79
2018-03-26T08:23:18.041Z,99911.25
2018-03-26T08:24:23.760Z,99912.02
2018-03-26T08:25:29.685Z,99915.69
2018-03-26T08:26:36.162Z,99915.46
2018-03-26T08:27:41.885Z,99910.72
2018-03-26T08:28:47.608Z,99918.23
2018-03-26T08:29:54.093Z,99909.77
2018-03-26T08:30:59.868Z,99914.89
2018-03-26T08:32:06.500Z,99908.52
2018-03-26T08:33:12.208Z,99906.94
2018-03-26T08:34:18.708Z,99906.78
2018-03-26T08:35:24.492Z,99906.25
2018-03-26T08:36:30.239Z,99909.87
2018-03-26T08:37:36.149Z,99908.98
2018-03-26T08:38:41.938Z,99910.99
2018-03-26T08:39:48.441Z,99911.84
2018-03-26T08:40:54.149Z,99910.95
2018-03-26T08:41:59.868Z,99919.01
2018-03-26T08:43:06.145Z,99917.90
2018-03-26T08:44:11.865Z,99923.45
2018-03-26T08:45:18.376Z,99921.75
2018-03-26T08:46:23.769Z,99918.55
2018-03-26T08:47:30.250Z,99920.41
2018-03-26T08:48:35.990Z,99919.20
2018-03-26T08:49:41.810Z,99923.02
2018-03-26T08:50:47.746Z,99928.38
2018-03-26T08:51:53.448Z,99925.87
2018-03-26T08:52:59.165Z,99926.22
2018-03-26T08:54:04.901Z,99934.36
2018-03-26T08:55:10.620Z,99933.63
2018-03-26T08:56:17.181Z,99930.70
2018-03-26T08:57:23.037Z,99930.00
2018-03-26T08:58:28.760Z,99929.97
2018-03-26T08:59:35.244Z,99935.56
2018-03-26T09:00:40.979Z,99930.85
2018-03-26T09:01:46.724Z,99929.62
2018-03-26T09:02:52.457Z,99928.97
2018-03-26T09:03:58.204Z,99932.44
2018-03-26T09:05:03.932Z,99935.59
2018-03-26T09:06:10.229Z,99935.79
2018-03-26T09:07:15.998Z,99928.69
2018-03-26T09:08:23.427Z,99929.92
2018-03-26T09:09:29.163Z,99935.94
2018-03-26T09:10:34.904Z,99931.96
2018-03-26T09:11:40.612Z,99938.14
2018-03-26T09:12:46.157Z,99935.47
2018-03-26T09:13:51.884Z,99941.19
2018-03-26T09:14:57.592Z,99937.52
2018-03-26T09:16:03.309Z,99944.00
2018-03-26T09:17:09.022Z,99938.37
2018-03-26T09:18:15.532Z,99942.03
2018-03-26T09:19:21.274Z,99942.34
2018-03-26T09:20:27.015Z,99947.20
2018-03-26T09:21:32.741Z,99944.08
2018-03-26T09:22:38.457Z,99941.19
2018-03-26T09:23:44.200Z,99942.69
2018-03-26T09:24:49.911Z,99944.42
2018-03-26T09:25:55.645Z,99939.19
2018-03-26T09:27:02.883Z,99945.39
2018-03-26T09:28:08.589Z,99945.89
2018-03-26T09:29:15.105Z,99946.85
2018-03-26T09:30:20.828Z,99949.20
2018-03-26T09:31:26.542Z,99947.20
2018-03-26T09:32:33.020Z,99951.36
2018-03-26T09:33:38.732Z,99950.13
2018-03-26T09:34:44.469Z,99950.94
2018-03-26T09:35:50.961Z,99953.33
2018-03-26T09:36:56.682Z,99953.14
2018-03-26T09:38:02.389Z,99959.97
2018-03-26T09:39:08.552Z,99961.16
2018-03-26T09:40:15.119Z,99956.69
2018-03-26T09:41:21.608Z,99958.81
2018-03-26T09:42:27.317Z,99964.13
2018-03-26T09:43:33.791Z,99960.47
2018-03-26T09:44:39.501Z,99966.64
2018-03-26T09:45:46.022Z,99961.70
2018-03-26T09:46:51.747Z,99963.05
2018-03-26T09:47:57.470Z,99963.52
2018-03-26T09:49:03.179Z,99966.95
2018-03-26T09:50:08.694Z,99964.86
2018-03-26T09:51:14.422Z,99966.21
2018-03-26T09:52:20.207Z,99971.18
2018-03-26T09:53:26.742Z,99967.52
2018-03-26T09:54:32.618Z,99968.98
2018-03-26T09:55:39.124Z,99971.17
2018-03-26T09:56:44.871Z,99973.52
2018-03-26T09:57:50.592Z,99969.50
2018-03-26T09:58:56.429Z,99971.03
2018-03-26T10:00:02.139Z,99970.77
2018-03-26T10:01:14.061Z,99969.77
2018-03-26T10:02:19.804Z,99975.58
2018-03-26T10:03:25.529Z,99969.30
2018-03-26T10:04:31.265Z,99972.20
2018-03-26T10:05:37.729Z,99974.40
2018-03-26T10:06:43.439Z,99975.28
2018-03-26T10:07:49.160Z,99974.86
2018-03-26T10:08:54.872Z,99973.16
2018-03-26T10:10:00.583Z,99974.55
2018-03-26T10:11:07.148Z,99976.08
2018-03-26T10:12:12.875Z,99974.92
2018-03-26T10:13:19.370Z,99975.69
2018-03-26T10:14:25.081Z,99980.44
2018-03-26T10:15:31.570Z,99979.05
2018-03-26T10:16:37.288Z,99975.19
2018-03-26T10:17:43.051Z,99978.13
2018-03-26T10:18:48.798Z,99977.74
2018-03-26T10:19:54.521Z,99979.27
2018-03-26T10:21:00.289Z,99976.50
2018-03-26T10:22:05.997Z,99980.36
2018-03-26T10:23:11.714Z,99974.97
2018-03-26T10:24:18.220Z,99984.03
2018-03-26T10:25:23.932Z,99981.34
2018-03-26T10:26:29.653Z,99979.53
2018-03-26T10:27:36.216Z,99980.91
2018-03-26T10:28:42.753Z,99987.00
2018-03-26T10:29:48.661Z,99987.43
2018-03-26T10:30:54.949Z,99988.70
2018-03-26T10:32:00.657Z,99983.84
2018-03-26T10:33:06.377Z,99982.11
2018-03-26T10:34:12.116Z,99987.85
2018-03-26T10:35:17.852Z,99986.05
2018-03-26T10:36:23.556Z,99977.79
2018-03-26T10:37:29.283Z,99979.88
2018-03-26T10:38:35.030Z,99982.77
2018-03-26T10:39:40.760Z,99983.86
2018-03-26T10:40:46.488Z,99990.84
2018-03-26T10:41:52.092Z,99991.44
2018-03-26T10:42:58.031Z,99993.36
2018-03-26T10:44:04.506Z,99999.31
2018-03-26T10:45:10.234Z,99998.38
2018-03-26T10:46:16.174Z,99992.64
2018-03-26T10:47:22.697Z,99994.80
2018-03-26T10:48:29.171Z,99997.31
2018-03-26T10:49:34.896Z,99994.27
2018-03-26T10:50:40.604Z,99992.45
2018-03-26T10:51:46.337Z,99996.77
2018-03-26T10:52:52.045Z,99989.59
2018-03-26T10:53:58.531Z,99995.53
2018-03-26T10:55:04.248Z,99995.08
2018-03-26T10:56:10.733Z,99997.31
2018-03-26T10:57:16.473Z,99995.77
2018-03-26T10:58:22.193Z,100002.52
2018-03-26T10:59:28.491Z,99997.01
2018-03-26T11:00:34.230Z,99996.81
2018-03-26T11:01:39.956Z,99998.05
2018-03-26T11:02:45.689Z,99997.62
2018-03-26T11:03:51.428Z,100000.36
2018-03-26T11:04:57.144Z,99998.70
2018-03-26T11:06:03.634Z,99995.06
2018-03-26T11:07:09.365Z,100000.63
2018-03-26T11:08:15.107Z,100003.67
2018-03-26T11:09:20.639Z,100003.13
2018-03-26T11:10:26.362Z,100005.25
2018-03-26T11:11:32.864Z,100006.56
2018-03-26T11:12:38.584Z,100008.45
2018-03-26T11:13:44.356Z,100009.85
2018-03-26T11:14:50.068Z,100011.08
2018-03-26T11:15:55.795Z,100011.70
2018-03-26T11:17:02.353Z,100010.05
2018-03-26T11:18:08.574Z,100019.73
2018-03-26T11:19:14.317Z,100016.80
2018-03-26T11:20:20.049Z,100013.09
2018-03-26T11:21:25.781Z,100021.35
2018-03-26T11:22:31.511Z,100016.21
2018-03-26T11:23:37.988Z,100018.95
2018-03-26T11:24:43.724Z,100020.45
2018-03-26T11:25:49.466Z,100015.38
2018-03-26T11:26:55.184Z,100016.19
2018-03-26T11:28:01.073Z,100017.34
2018-03-26T11:29:06.950Z,100016.53
2018-03-26T11:30:13.461Z,100011.38
2018-03-26T11:31:19.191Z,100016.01
2018-03-26T11:32:24.928Z,100015.00
2018-03-26T11:33:30.652Z,100013.75
2018-03-26T11:34:36.386Z,100011.11
2018-03-26T11:35:42.132Z,100009.61
2018-03-26T11:36:47.862Z,100015.64
2018-03-26T11:37:53.586Z,100015.56
2018-03-26T11:39:00.069Z,100007.73
2018-03-26T11:40:05.212Z,100010.16
2018-03-26T11:41:10.965Z,100014.55
2018-03-26T11:42:16.681Z,100012.47
2018-03-26T11:43:23.215Z,100009.59
2018-03-26T11:44:28.960Z,100014.50
2018-03-26T11:45:34.716Z,100009.30
2018-03-26T11:46:40.468Z,100009.38
2018-03-26T11:47:46.212Z,100009.09
2018-03-26T11:48:52.035Z,100002.81
2018-03-26T11:49:57.768Z,100009.38
2018-03-26T11:51:03.489Z,100005.35
2018-03-26T11:52:10.021Z,100012.22
2018-03-26T11:53:15.764Z,100009.58
2018-03-26T11:54:21.704Z,100012.88
2018-03-26T11:55:27.425Z,100007.84
2018-03-26T11:56:33.161Z,100005.82
2018-03-26T11:57:38.753Z,100012.70
2018-03-26T11:58:45.243Z,100010.75
2018-03-26T11:59:50.964Z,100005.98
2018-03-26T12:00:57.445Z,100007.47
2018-03-26T12:02:03.199Z,100009.69
2018-03-26T12:03:08.994Z,100011.57
2018-03-26T12:04:14.896Z,100010.17
2018-03-26T12:05:20.617Z,100006.98
2018-03-26T12:06:26.353Z,100011.70
2018-03-26T12:07:32.068Z,100011.14
2018-03-26T12:08:38.578Z,100015.61
2018-03-26T12:09:44.317Z,100011.84
2018-03-26T12:10:50.040Z,100009.30
2018-03-26T12:11:55.771Z,100013.58
2018-03-26T12:13:01.522Z,100015.16
2018-03-26T12:14:08.262Z,100014.31
2018-03-26T12:15:14.758Z,100008.94
2018-03-26T12:16:21.248Z,100014.95
2018-03-26T12:17:26.978Z,100006.20
2018-03-26T12:18:32.713Z,100011.13
2018-03-26T12:19:55.273Z,100009.66
2018-03-26T12:21:01.056Z,100012.34
2018-03-26T12:22:07.806Z,100006.34
2018-03-26T12:23:31.201Z,100007.53
2018-03-26T12:24:53.776Z,100009.70
2018-03-26T12:25:59.518Z,100012.16
2018-03-26T12:27:06.011Z,100005.89
2018-03-26T12:28:28.648Z,100008.64
2018-03-26T12:29:51.502Z,100003.14
2018-03-26T12:30:57.248Z,100004.13
2018-03-26T12:32:02.989Z,100014.48
2018-03-26T12:33:08.717Z,100005.17
2018-03-26T12:34:31.354Z,100009.36
2018-03-26T12:36:00.013Z,100006.62
2018-03-26T12:37:06.521Z,100004.78
2018-03-26T12:38:12.348Z,100011.09
2018-03-26T12:39:18.279Z,100003.22
2018-03-26T12:40:41.096Z,100005.73
2018-03-26T12:41:46.865Z,100013.45
2018-03-26T12:42:52.630Z,100012.44
2018-03-26T12:43:58.373Z,100014.05
2018-03-26T12:46:49.967Z,100011.41
2018-03-26T12:47:55.708Z,100011.73
2018-03-26T12:49:01.423Z,100015.83
2018-03-26T12:50:07.909Z,100013.95
2018-03-26T12:51:30.547Z,100008.23
2018-03-26T12:52:42.084Z,100006.97
2018-03-26T12:53:47.801Z,100007.30
2018-03-26T12:54:53.529Z,100002.66
2018-03-26T12:56:00.030Z,100006.09
2018-03-26T12:57:23.388Z,100005.95